Time;durP1;ratioP1;P1;durP2;ratioP2;P2;SDS_P1;SDS_P2;PMS_P1;PMS_P2;Temp;Humidity;BMP_temperature;BMP_pressure;BME280_temperature;BME280_humidity;BME280_pressure;Samples;Min_cycle;Max_cycle;Signal;HPM_P1;HPM_P2
2023/11/29 00:02:22;;;;;;;23.90;15.52;;;17.40;66.80;;;;;;4970215;28;20078;-78
2023/11/29 00:04:48;;;;;;;21.52;14.48;;;17.30;65.80;;;;;;4968507;28;20043;-78
2023/11/29 00:07:13;;;;;;;18.55;12.85;;;17.40;65.90;;;;;;4967939;28;20287;-78
2023/11/29 00:09:39;;;;;;;21.48;14.57;;;17.40;65.90;;;;;;4969380;28;20053;-78
2023/11/29 00:12:05;;;;;;;19.63;13.55;;;17.30;65.90;;;;;;4967598;28;20090;-78
2023/11/29 00:14:32;;;;;;;19.40;13.63;;;17.30;66.00;;;;;;4969490;28;20047;-78
2023/11/29 00:16:58;;;;;;;20.13;13.55;;;17.30;66.00;;;;;;4967064;28;20050;-84
2023/11/29 00:19:23;;;;;;;16.92;12.00;;;17.30;66.00;;;;;;4967278;28;20055;-83
2023/11/29 00:21:49;;;;;;;19.60;13.13;;;17.30;66.00;;;;;;4968470;28;20108;-83
2023/11/29 00:24:14;;;;;;;18.77;12.65;;;17.30;66.10;;;;;;4968425;28;20054;-84
2023/11/29 00:26:40;;;;;;;18.75;13.18;;;17.20;66.10;;;;;;4967292;28;20129;-84
2023/11/29 00:29:08;;;;;;;17.88;11.88;;;17.20;66.20;;;;;;4967608;28;20045;-84
2023/11/29 00:31:34;;;;;;;18.15;12.40;;;17.20;66.20;;;;;;4967617;28;20050;-84
2023/11/29 00:34:00;;;;;;;18.33;13.05;;;17.20;66.30;;;;;;4970086;28;20050;-83
2023/11/29 00:36:26;;;;;;;18.63;12.80;;;17.20;66.30;;;;;;4969640;28;20039;-84
2023/11/29 00:38:51;;;;;;;15.70;11.68;;;17.20;66.30;;;;;;4966381;28;20043;-83
2023/11/29 00:41:17;;;;;;;17.25;11.88;;;17.10;66.30;;;;;;4965519;28;20131;-83
2023/11/29 00:43:42;;;;;;;16.65;12.13;;;17.20;66.40;;;;;;4967307;28;20519;-84
2023/11/29 00:46:08;;;;;;;20.80;13.43;;;17.10;66.40;;;;;;4964837;28;20424;-83
2023/11/29 00:48:33;;;;;;;17.10;12.63;;;17.10;66.50;;;;;;4967677;28;20047;-84
2023/11/29 00:50:59;;;;;;;14.73;11.80;;;17.10;66.50;;;;;;4965692;28;20043;-84
2023/11/29 00:53:25;;;;;;;14.88;11.95;;;17.10;66.50;;;;;;4971840;28;20137;-84
2023/11/29 00:55:50;;;;;;;16.92;12.02;;;17.10;66.50;;;;;;4966598;28;20057;-81
2023/11/29 00:58:17;;;;;;;16.85;11.02;;;17.00;66.50;;;;;;4966266;28;20039;-82
2023/11/29 01:00:42;;;;;;;15.90;11.27;;;17.00;66.10;;;;;;4966612;28;20050;-82
2023/11/29 01:03:08;;;;;;;15.05;10.85;;;17.00;66.50;;;;;;4966527;28;20552;-82
2023/11/29 01:05:33;;;;;;;14.82;11.10;;;17.00;66.60;;;;;;4966668;28;20639;-84
2023/11/29 01:07:59;;;;;;;13.35;10.68;;;17.00;66.40;;;;;;4967765;28;20042;-83
2023/11/29 01:10:25;;;;;;;15.60;10.90;;;17.00;66.60;;;;;;4965370;28;20454;-83
2023/11/29 01:12:50;;;;;;;13.00;9.82;;;17.00;66.50;;;;;;4966376;28;20106;-82
2023/11/29 01:15:16;;;;;;;12.20;9.80;;;16.90;66.50;;;;;;4966294;28;20126;-83
2023/11/29 01:17:43;;;;;;;12.40;9.25;;;17.00;66.50;;;;;;4967600;28;20402;-83
2023/11/29 01:20:08;;;;;;;14.63;10.88;;;17.00;66.60;;;;;;4967225;28;20086;-82
2023/11/29 01:22:34;;;;;;;11.45;9.25;;;16.90;66.00;;;;;;4967757;28;20043;-82
2023/11/29 01:25:00;;;;;;;14.05;9.93;;;16.90;65.80;;;;;;4967133;28;20039;-82
2023/11/29 01:27:30;;;;;;;12.80;9.55;;;16.90;66.10;;;;;;4964195;28;20066;-82
2023/11/29 01:29:56;;;;;;;11.02;8.93;;;16.90;66.10;;;;;;4960995;28;20566;-83
2023/11/29 01:32:22;;;;;;;13.32;9.48;;;16.90;65.70;;;;;;4965361;28;20122;-84
2023/11/29 01:34:47;;;;;;;11.75;9.10;;;16.90;66.20;;;;;;4949415;28;20122;-84
2023/11/29 01:37:13;;;;;;;11.90;8.85;;;16.90;65.50;;;;;;4965063;28;20520;-82
2023/11/29 01:39:41;;;;;;;11.60;9.07;;;16.90;65.10;;;;;;4961569;28;20405;-83
2023/11/29 01:42:07;;;;;;;11.52;8.15;;;16.90;65.10;;;;;;4963683;28;20561;-82
2023/11/29 01:44:33;;;;;;;10.93;8.25;;;16.90;65.00;;;;;;4932328;28;20047;-84
2023/11/29 01:46:58;;;;;;;9.88;8.27;;;16.90;65.10;;;;;;4965624;28;20049;-84
2023/11/29 01:49:24;;;;;;;10.35;8.43;;;16.80;65.00;;;;;;4964385;28;20026;-83
2023/11/29 01:51:49;;;;;;;8.82;7.72;;;16.80;65.00;;;;;;4964193;28;20042;-83
2023/11/29 01:54:15;;;;;;;10.13;7.88;;;16.80;65.00;;;;;;4964247;28;20478;-83
2023/11/29 01:56:40;;;;;;;10.32;7.93;;;16.80;65.00;;;;;;4965804;28;20043;-81
2023/11/29 01:59:06;;;;;;;11.07;8.27;;;16.80;65.20;;;;;;4965476;28;20043;-81
2023/11/29 02:01:32;;;;;;;9.75;7.85;;;16.80;65.20;;;;;;4966548;28;20062;-81
2023/11/29 02:03:58;;;;;;;9.95;7.90;;;16.80;65.20;;;;;;4949014;28;20065;-81
2023/11/29 02:06:24;;;;;;;9.35;8.35;;;16.80;65.20;;;;;;4965495;28;20050;-83
2023/11/29 02:08:49;;;;;;;10.05;8.10;;;16.80;65.30;;;;;;4964333;28;20027;-82
2023/11/29 02:11:16;;;;;;;9.93;8.05;;;16.70;65.40;;;;;;4963238;28;20046;-82
2023/11/29 02:13:42;;;;;;;8.80;7.30;;;16.70;65.30;;;;;;4963556;28;20098;-83
2023/11/29 02:16:08;;;;;;;10.90;8.45;;;16.70;65.40;;;;;;4963700;28;20505;-84
2023/11/29 02:18:33;;;;;;;9.35;7.82;;;16.70;65.40;;;;;;4966358;28;20476;-85
2023/11/29 02:20:59;;;;;;;8.95;7.95;;;16.70;65.50;;;;;;4962443;28;20045;-84
2023/11/29 02:23:51;;;;;;;9.38;7.43;;;16.70;65.60;;;;;;4963134;28;20115;-85
2023/11/29 02:26:17;;;;;;;8.30;7.38;;;16.70;65.70;;;;;;4960699;28;20157;-84
2023/11/29 02:28:42;;;;;;;8.95;7.50;;;16.60;65.60;;;;;;4966475;28;20497;-84
2023/11/29 02:31:08;;;;;;;8.40;7.30;;;16.60;65.70;;;;;;4962773;28;20054;-85
2023/11/29 02:33:33;;;;;;;7.50;6.65;;;16.60;65.70;;;;;;4959215;28;20047;-84
2023/11/29 02:35:59;;;;;;;7.60;6.80;;;16.60;65.80;;;;;;4964261;28;20058;-84
2023/11/29 02:38:25;;;;;;;9.13;7.28;;;16.60;65.90;;;;;;4966637;28;20577;-83
2023/11/29 02:40:50;;;;;;;8.38;7.05;;;16.60;66.00;;;;;;4965749;28;20501;-83
2023/11/29 02:43:16;;;;;;;7.40;6.60;;;16.60;65.90;;;;;;4965461;28;20051;-84
2023/11/29 02:45:41;;;;;;;7.30;6.60;;;16.60;66.00;;;;;;4947050;28;20035;-84
2023/11/29 02:48:07;;;;;;;7.40;6.70;;;16.60;66.10;;;;;;4963690;28;20117;-84
2023/11/29 02:50:32;;;;;;;7.95;6.63;;;16.60;66.10;;;;;;4948297;28;20101;-84
2023/11/29 02:52:58;;;;;;;7.20;6.50;;;16.60;66.10;;;;;;4963606;28;20047;-83
2023/11/29 02:55:23;;;;;;;7.57;6.40;;;16.60;66.10;;;;;;4962727;28;20046;-83
2023/11/29 02:57:49;;;;;;;7.57;6.40;;;16.60;66.20;;;;;;4963710;28;20972;-83
2023/11/29 03:00:15;;;;;;;8.35;7.05;;;16.60;66.10;;;;;;4961191;28;20516;-83
2023/11/29 03:02:41;;;;;;;7.07;6.03;;;16.60;66.20;;;;;;4964234;28;20046;-83
2023/11/29 03:05:07;;;;;;;6.68;5.97;;;16.50;66.20;;;;;;4958889;28;20039;-83
2023/11/29 03:07:32;;;;;;;6.25;5.65;;;16.50;66.20;;;;;;4964862;28;20063;-84
2023/11/29 03:09:58;;;;;;;6.70;6.03;;;16.50;66.20;;;;;;4964266;28;20409;-83
2023/11/29 03:12:23;;;;;;;6.68;6.00;;;16.50;66.20;;;;;;4962090;28;20072;-83
2023/11/29 03:14:49;;;;;;;7.05;6.15;;;16.50;66.30;;;;;;4965834;28;20083;-84
2023/11/29 03:17:14;;;;;;;6.43;5.82;;;16.50;66.30;;;;;;4947865;28;20059;-84
2023/11/29 03:19:40;;;;;;;7.93;6.03;;;16.50;66.50;;;;;;4947279;28;20043;-84
2023/11/29 03:22:06;;;;;;;6.50;5.90;;;16.50;66.30;;;;;;4964064;28;20047;-83
2023/11/29 03:24:31;;;;;;;6.00;5.45;;;16.50;66.50;;;;;;4948065;28;20441;-83
2023/11/29 03:26:57;;;;;;;6.15;5.55;;;16.50;66.30;;;;;;4963245;28;20445;-83
2023/11/29 03:29:22;;;;;;;6.20;5.60;;;16.40;66.50;;;;;;4963334;28;20429;-83
2023/11/29 03:31:48;;;;;;;5.93;5.35;;;16.50;66.50;;;;;;4963420;28;20053;-84
2023/11/29 03:34:14;;;;;;;5.35;4.85;;;16.40;66.40;;;;;;4960561;28;20501;-82
2023/11/29 03:36:40;;;;;;;5.97;5.38;;;16.40;66.40;;;;;;4964506;28;20039;-82
2023/11/29 03:39:05;;;;;;;5.43;4.93;;;16.40;66.30;;;;;;4962580;28;20524;-81
2023/11/29 03:41:31;;;;;;;5.75;5.22;;;16.40;66.50;;;;;;4964731;28;20039;-82
2023/11/29 03:43:57;;;;;;;5.78;5.28;;;16.40;66.50;;;;;;4981453;28;20507;-80
2023/11/29 03:46:22;;;;;;;5.30;4.90;;;16.40;66.40;;;;;;4963436;28;20046;-81
2023/11/29 03:48:48;;;;;;;5.03;4.63;;;16.40;66.50;;;;;;4948174;28;20039;-82
2023/11/29 03:51:13;;;;;;;5.30;4.75;;;16.40;66.50;;;;;;4965414;28;20559;-84
2023/11/29 03:53:39;;;;;;;5.22;4.72;;;16.40;66.40;;;;;;4950396;28;20097;-86
2023/11/29 03:56:05;;;;;;;5.22;4.72;;;16.40;66.50;;;;;;4968094;28;20038;-85
2023/11/29 03:58:31;;;;;;;4.93;4.53;;;16.40;66.50;;;;;;4967771;28;20097;-83
2023/11/29 04:00:56;;;;;;;4.78;4.28;;;16.30;66.30;;;;;;4968892;28;20047;-83
2023/11/29 04:03:22;;;;;;;5.10;4.60;;;16.30;66.40;;;;;;4966561;28;20043;-83
2023/11/29 04:05:47;;;;;;;4.72;4.32;;;16.30;66.50;;;;;;4967146;28;20146;-83
2023/11/29 04:08:13;;;;;;;4.90;4.50;;;16.30;66.40;;;;;;4965324;28;20043;-83
2023/11/29 04:10:38;;;;;;;4.95;4.55;;;16.30;66.60;;;;;;4965883;28;20035;-83
2023/11/29 04:13:04;;;;;;;5.28;4.80;;;16.30;66.40;;;;;;4967816;28;20054;-82
2023/11/29 04:15:30;;;;;;;5.57;5.15;;;16.30;66.50;;;;;;4968494;28;20104;-82
2023/11/29 04:17:55;;;;;;;4.88;4.47;;;16.30;66.40;;;;;;4968318;28;20401;-82
2023/11/29 04:20:21;;;;;;;4.40;4.00;;;16.30;66.50;;;;;;4961743;28;20109;-82
2023/11/29 04:22:47;;;;;;;4.88;4.47;;;16.30;66.40;;;;;;4963846;28;20760;-82
2023/11/29 04:25:13;;;;;;;4.90;4.50;;;16.30;66.50;;;;;;4964785;28;20112;-82
2023/11/29 04:27:38;;;;;;;4.60;4.20;;;16.30;66.50;;;;;;4967924;28;20464;-82
2023/11/29 04:30:05;;;;;;;4.50;4.18;;;16.30;67.00;;;;;;4965453;28;20051;-82
2023/11/29 04:32:30;;;;;;;4.63;4.32;;;16.30;66.40;;;;;;4966682;28;20038;-81
2023/11/29 04:34:56;;;;;;;4.68;4.32;;;16.20;66.40;;;;;;4965795;28;20034;-83
2023/11/29 04:37:22;;;;;;;4.57;4.18;;;16.30;66.40;;;;;;4980386;28;20046;-83
2023/11/29 04:39:47;;;;;;;4.97;4.57;;;16.30;66.40;;;;;;4966173;28;20122;-84
2023/11/29 04:42:13;;;;;;;4.20;3.90;;;16.20;66.50;;;;;;4965603;28;20039;-83
2023/11/29 04:44:38;;;;;;;5.28;4.80;;;16.20;66.50;;;;;;4967743;28;20437;-83
2023/11/29 04:47:04;;;;;;;4.28;3.97;;;16.20;66.50;;;;;;4965560;28;20107;-82
2023/11/29 04:49:29;;;;;;;3.85;3.55;;;16.20;66.40;;;;;;4965283;28;20050;-82
2023/11/29 04:51:55;;;;;;;4.43;4.13;;;16.20;66.40;;;;;;4948159;28;20046;-82
2023/11/29 04:54:20;;;;;;;4.05;3.70;;;16.20;66.40;;;;;;4966106;28;20096;-82
2023/11/29 04:56:46;;;;;;;4.32;4.03;;;16.20;66.40;;;;;;4967627;28;20030;-82
2023/11/29 04:59:12;;;;;;;4.55;4.10;;;16.20;66.50;;;;;;4967578;28;20497;-84
2023/11/29 05:01:37;;;;;;;3.72;3.45;;;16.20;66.50;;;;;;4966754;28;20097;-84
2023/11/29 05:04:03;;;;;;;3.97;3.67;;;16.20;66.30;;;;;;4965496;28;20501;-83
2023/11/29 05:06:29;;;;;;;3.63;3.33;;;16.20;66.40;;;;;;4968260;28;20418;-83
2023/11/29 05:08:54;;;;;;;3.95;3.65;;;16.20;66.50;;;;;;4966369;28;20520;-83
2023/11/29 05:11:20;;;;;;;4.30;4.00;;;16.20;66.40;;;;;;4966604;28;20550;-83
2023/11/29 05:13:46;;;;;;;4.60;4.30;;;16.20;66.50;;;;;;4951765;28;20473;-82
2023/11/29 05:16:11;;;;;;;4.13;3.83;;;16.20;66.30;;;;;;4965498;28;20045;-82
2023/11/29 05:18:37;;;;;;;3.90;3.60;;;16.20;66.40;;;;;;4966207;28;20413;-82
2023/11/29 05:21:02;;;;;;;3.80;3.50;;;16.20;66.30;;;;;;4967632;28;20505;-83
2023/11/29 05:23:29;;;;;;;3.47;3.28;;;16.20;66.30;;;;;;4966367;28;20039;-82
2023/11/29 05:25:57;;;;;;;4.10;3.80;;;16.10;66.30;;;;;;4952212;28;20417;-83
2023/11/29 05:28:24;;;;;;;3.90;3.60;;;16.10;66.30;;;;;;4964244;28;20055;-82
2023/11/29 05:30:50;;;;;;;3.72;3.42;;;16.10;66.30;;;;;;4966767;28;20078;-83
2023/11/29 05:33:18;;;;;;;2.72;2.60;;;16.10;66.50;;;;;;4963300;28;20043;-84
2023/11/29 05:35:44;;;;;;;3.90;3.60;;;16.10;66.40;;;;;;4965811;28;20505;-83
2023/11/29 05:38:10;;;;;;;3.55;3.22;;;16.10;66.30;;;;;;4966512;28;20139;-82
2023/11/29 05:40:35;;;;;;;3.38;3.17;;;16.10;66.40;;;;;;4963600;28;20491;-83
2023/11/29 05:43:01;;;;;;;3.58;3.38;;;16.10;66.40;;;;;;4966789;28;20500;-85
2023/11/29 05:45:27;;;;;;;3.58;3.38;;;16.10;66.20;;;;;;4965678;28;20030;-84
2023/11/29 05:47:52;;;;;;;3.47;3.22;;;16.10;66.40;;;;;;4964003;28;20042;-83
2023/11/29 05:50:18;;;;;;;3.60;3.30;;;16.10;66.50;;;;;;4961098;28;20050;-85
2023/11/29 05:52:43;;;;;;;3.42;3.13;;;16.10;66.30;;;;;;4939499;28;20046;-82
2023/11/29 05:55:09;;;;;;;3.25;3.05;;;16.10;66.60;;;;;;4935455;28;20039;-83
2023/11/29 05:57:35;;;;;;;3.70;3.50;;;16.10;66.20;;;;;;4950595;28;20035;-85
2023/11/29 06:00:08;;;;;;;3.58;3.28;;;16.10;66.70;;;;;;4950206;28;20062;-83
2023/11/29 06:02:34;;;;;;;12.02;5.95;;;16.10;66.30;;;;;;4953765;28;20057;-82
2023/11/29 06:05:00;;;;;;;34.22;26.23;;;16.10;66.00;;;;;;4962980;28;20043;-81
2023/11/29 06:07:25;;;;;;;33.23;26.47;;;16.20;65.40;;;;;;4629732;28;10000556;-81
2023/11/29 06:09:51;;;;;;;21.95;17.17;;;16.20;65.20;;;;;;4967186;28;20819;-83
2023/11/29 06:12:18;;;;;;;15.65;14.02;;;16.20;66.30;;;;;;4959334;28;20402;-81
2023/11/29 06:14:43;;;;;;;17.20;14.40;;;16.20;66.30;;;;;;4968642;28;20094;-80
2023/11/29 06:17:09;;;;;;;13.90;11.35;;;16.20;65.80;;;;;;4963541;28;20066;-80
2023/11/29 06:19:35;;;;;;;13.18;10.35;;;16.20;66.50;;;;;;4962504;28;20046;-80
2023/11/29 06:22:01;;;;;;;10.23;9.23;;;16.30;66.50;;;;;;4948574;28;20038;-80
2023/11/29 06:24:31;;;;;;;10.50;9.43;;;16.30;66.20;;;;;;4962423;28;20133;-81
2023/11/29 06:27:00;;;;;;;9.35;8.43;;;16.30;66.40;;;;;;4959647;28;20039;-81
2023/11/29 06:29:26;;;;;;;10.07;8.40;;;16.30;66.00;;;;;;4966339;28;20039;-81
2023/11/29 06:31:51;;;;;;;8.80;7.97;;;16.40;66.20;;;;;;4961437;28;20494;-81
2023/11/29 06:34:17;;;;;;;9.95;7.13;;;16.40;66.20;;;;;;4963064;28;20105;-81
2023/11/29 06:36:43;;;;;;;8.50;7.70;;;16.40;66.30;;;;;;4963999;28;20101;-83
2023/11/29 06:39:11;;;;;;;8.10;7.30;;;16.50;66.30;;;;;;4965416;28;20038;-85
2023/11/29 06:41:37;;;;;;;8.18;7.38;;;16.60;66.10;;;;;;4962862;28;20051;-84
2023/11/29 06:44:05;;;;;;;8.23;7.53;;;16.60;65.90;;;;;;4962484;28;20039;-83
2023/11/29 06:46:31;;;;;;;7.55;6.95;;;16.60;65.60;;;;;;4964301;28;20047;-83
2023/11/29 06:48:56;;;;;;;6.78;6.28;;;16.70;65.30;;;;;;4980034;28;20039;-81
2023/11/29 06:51:22;;;;;;;7.78;6.90;;;16.80;65.50;;;;;;4961456;28;20075;-82
2023/11/29 06:53:47;;;;;;;8.20;6.50;;;16.80;65.40;;;;;;4957888;28;20050;-81
2023/11/29 06:56:13;;;;;;;7.30;6.60;;;16.80;65.30;;;;;;4947389;28;20053;-81
2023/11/29 06:58:39;;;;;;;6.70;6.20;;;16.80;65.20;;;;;;4953569;28;20046;-82
2023/11/29 07:01:07;;;;;;;7.13;6.53;;;16.80;65.20;;;;;;4959647;28;20974;-82
2023/11/29 07:03:32;;;;;;;6.03;5.53;;;16.80;65.20;;;;;;4960951;28;20067;-82
2023/11/29 07:05:58;;;;;;;6.50;5.82;;;16.80;65.10;;;;;;4965873;28;20130;-82
2023/11/29 07:08:23;;;;;;;6.43;6.00;;;16.90;65.10;;;;;;4960535;28;20413;-81
2023/11/29 07:10:49;;;;;;;6.47;5.88;;;16.90;64.90;;;;;;4959997;28;20140;-82
2023/11/29 07:13:15;;;;;;;6.30;5.80;;;16.90;65.10;;;;;;4962270;28;20050;-80
2023/11/29 07:15:41;;;;;;;8.43;5.82;;;16.80;65.00;;;;;;4961952;28;20062;-81
2023/11/29 07:18:06;;;;;;;6.25;5.60;;;16.80;65.00;;;;;;4979359;28;20051;-83
2023/11/29 07:20:32;;;;;;;5.85;5.45;;;16.90;64.80;;;;;;4961922;28;20053;-82
2023/11/29 07:22:57;;;;;;;7.95;5.20;;;17.00;64.50;;;;;;4943332;28;20141;-81
2023/11/29 07:25:23;;;;;;;6.20;5.70;;;16.90;64.50;;;;;;4945376;28;20050;-80
2023/11/29 07:27:48;;;;;;;5.82;5.32;;;16.90;64.60;;;;;;4965486;28;20043;-81
2023/11/29 07:30:14;;;;;;;5.80;5.40;;;17.00;64.60;;;;;;4964242;28;20152;-81
2023/11/29 07:32:40;;;;;;;6.07;5.47;;;16.90;64.50;;;;;;4968385;28;20075;-80
2023/11/29 07:35:06;;;;;;;5.90;5.30;;;17.00;64.60;;;;;;4968074;28;20039;-80
2023/11/29 07:37:31;;;;;;;5.65;5.10;;;16.90;64.60;;;;;;4950576;28;20054;-80
2023/11/29 07:39:57;;;;;;;4.63;4.32;;;17.00;64.60;;;;;;4982539;28;20039;-81
2023/11/29 07:42:23;;;;;;;5.60;5.03;;;17.00;64.70;;;;;;4964665;28;20061;-81
2023/11/29 07:44:49;;;;;;;5.20;4.90;;;17.00;64.70;;;;;;4962450;28;20046;-82
2023/11/29 07:47:14;;;;;;;10.82;9.50;;;17.00;64.50;;;;;;4964671;28;20125;-80
2023/11/29 07:49:40;;;;;;;11.52;8.98;;;17.00;64.30;;;;;;4964279;28;20078;-81
2023/11/29 07:52:06;;;;;;;13.70;11.45;;;17.00;64.30;;;;;;4965873;28;20054;-81
2023/11/29 07:54:31;;;;;;;25.58;17.80;;;17.10;64.40;;;;;;4961204;28;20495;-80
2023/11/29 07:56:57;;;;;;;24.73;19.25;;;17.10;64.30;;;;;;4961935;28;20035;-81
2023/11/29 07:59:22;;;;;;;34.60;25.63;;;17.10;64.20;;;;;;4956898;28;20046;-80
2023/11/29 08:01:48;;;;;;;38.33;29.02;;;17.10;64.20;;;;;;4965274;28;20102;-81
2023/11/29 08:04:15;;;;;;;42.60;31.25;;;17.10;64.20;;;;;;4962586;28;20035;-80
2023/11/29 08:06:41;;;;;;;44.50;29.50;;;17.00;64.10;;;;;;4959315;28;20066;-82
2023/11/29 08:09:08;;;;;;;39.65;28.73;;;17.00;64.40;;;;;;4963208;28;20027;-80
2023/11/29 08:11:34;;;;;;;40.92;29.38;;;17.00;64.40;;;;;;4960106;28;20478;-81
2023/11/29 08:14:01;;;;;;;43.95;30.67;;;17.00;64.30;;;;;;4964365;28;20125;-80
2023/11/29 08:16:27;;;;;;;42.28;30.50;;;17.10;64.30;;;;;;4965102;28;20051;-80
2023/11/29 08:18:52;;;;;;;44.47;30.02;;;17.10;64.30;;;;;;4962531;28;20085;-80
2023/11/29 08:21:18;;;;;;;41.50;29.35;;;17.00;64.50;;;;;;4961942;28;20509;-80
2023/11/29 08:23:44;;;;;;;39.00;28.95;;;17.10;64.40;;;;;;4965919;28;20046;-80
2023/11/29 08:26:10;;;;;;;42.92;31.17;;;17.10;64.20;;;;;;4961522;28;20612;-79
2023/11/29 08:28:35;;;;;;;41.25;29.73;;;17.10;64.90;;;;;;4961766;28;20154;-80
2023/11/29 08:31:01;;;;;;;37.53;28.20;;;17.10;64.20;;;;;;4969161;28;20096;-80
2023/11/29 08:33:26;;;;;;;36.50;27.17;;;17.20;64.30;;;;;;4968984;28;20066;-81
2023/11/29 08:35:52;;;;;;;33.88;25.40;;;17.20;63.90;;;;;;4966192;28;20051;-80
2023/11/29 08:38:17;;;;;;;36.50;26.90;;;17.30;63.70;;;;;;4948030;28;20055;-80
2023/11/29 08:40:43;;;;;;;34.83;25.92;;;17.30;63.50;;;;;;4965769;28;20110;-80
2023/11/29 08:43:08;;;;;;;36.25;26.00;;;17.30;63.70;;;;;;4948622;28;20085;-80
2023/11/29 08:45:34;;;;;;;37.67;26.00;;;17.40;63.60;;;;;;4967473;28;20053;-82
2023/11/29 08:48:00;;;;;;;34.08;25.65;;;17.50;63.50;;;;;;4968075;28;20101;-82
2023/11/29 08:50:25;;;;;;;32.83;24.27;;;17.50;63.20;;;;;;4963578;28;20050;-81
2023/11/29 08:52:51;;;;;;;33.40;24.73;;;17.50;63.20;;;;;;4967566;28;20034;-82
2023/11/29 08:55:17;;;;;;;33.17;23.60;;;17.50;63.20;;;;;;4966129;28;20051;-80
2023/11/29 08:57:43;;;;;;;30.58;21.77;;;17.50;64.00;;;;;;4949247;28;20046;-80
2023/11/29 09:00:09;;;;;;;28.23;21.20;;;17.50;63.00;;;;;;4964493;28;20042;-82
2023/11/29 09:02:34;;;;;;;28.35;21.30;;;17.50;62.90;;;;;;4620394;28;9999759;-82
2023/11/29 09:05:03;;;;;;;27.13;21.67;;;17.60;63.00;;;;;;4965077;28;20535;-83
2023/11/29 09:07:28;;;;;;;27.95;21.58;;;17.60;62.80;;;;;;4947833;28;20034;-83
2023/11/29 09:09:56;;;;;;;26.63;20.48;;;17.60;63.00;;;;;;4960080;28;20039;-83
2023/11/29 09:12:23;;;;;;;28.75;22.25;;;17.50;62.90;;;;;;4963194;28;20038;-81
2023/11/29 09:14:48;;;;;;;24.23;19.23;;;17.50;63.00;;;;;;4950371;28;20067;-83
2023/11/29 09:17:16;;;;;;;27.63;20.80;;;17.60;63.10;;;;;;4964130;28;20035;-83
2023/11/29 09:19:43;;;;;;;26.33;19.25;;;17.50;63.10;;;;;;4963780;28;20042;-83
2023/11/29 09:22:09;;;;;;;25.70;20.08;;;17.50;63.20;;;;;;4947732;28;20548;-83
2023/11/29 09:24:35;;;;;;;26.25;18.80;;;17.50;63.20;;;;;;4964108;28;20038;-83
2023/11/29 09:27:01;;;;;;;27.23;20.55;;;17.50;63.20;;;;;;4947931;28;20628;-83
2023/11/29 09:29:28;;;;;;;24.55;18.55;;;17.50;63.20;;;;;;4980318;28;20146;-84
2023/11/29 09:31:53;;;;;;;21.83;17.05;;;17.50;63.20;;;;;;4966874;28;20053;-83
2023/11/29 09:34:20;;;;;;;20.17;16.45;;;17.40;64.20;;;;;;4947171;28;20043;-82
2023/11/29 09:36:46;;;;;;;21.48;16.95;;;17.40;62.60;;;;;;4962159;28;20043;-83
2023/11/29 09:39:12;;;;;;;21.58;17.48;;;17.50;63.20;;;;;;4964209;28;20108;-83
2023/11/29 09:41:38;;;;;;;21.42;16.65;;;17.50;63.40;;;;;;4965825;28;20046;-83
2023/11/29 09:44:05;;;;;;;21.60;16.58;;;17.50;63.40;;;;;;4964993;28;20082;-82
2023/11/29 09:46:30;;;;;;;22.98;17.33;;;17.50;63.40;;;;;;4964790;28;20484;-83
2023/11/29 09:48:59;;;;;;;21.60;17.13;;;17.50;63.60;;;;;;4959949;28;20118;-82
2023/11/29 09:51:25;;;;;;;22.85;18.00;;;17.50;63.60;;;;;;4959871;28;20134;-82
2023/11/29 09:53:50;;;;;;;18.40;15.45;;;17.50;63.80;;;;;;4961627;28;20527;-83
2023/11/29 09:56:16;;;;;;;18.98;15.43;;;17.50;63.60;;;;;;4964408;28;20445;-84
2023/11/29 09:58:41;;;;;;;18.48;15.27;;;17.60;63.60;;;;;;4947456;28;20422;-85
2023/11/29 10:01:07;;;;;;;17.70;14.85;;;17.60;63.30;;;;;;4964920;28;20056;-83
2023/11/29 10:03:34;;;;;;;17.67;14.98;;;17.60;63.20;;;;;;4964878;28;20070;-84
2023/11/29 10:06:02;;;;;;;18.48;14.68;;;17.70;63.10;;;;;;4964330;28;20425;-84
2023/11/29 10:08:27;;;;;;;19.63;14.73;;;17.70;63.10;;;;;;4964474;28;20038;-83
2023/11/29 10:10:53;;;;;;;17.42;14.50;;;17.60;63.10;;;;;;4964666;28;20056;-83
2023/11/29 10:13:20;;;;;;;17.85;13.73;;;17.70;63.10;;;;;;4962386;28;20066;-83
2023/11/29 10:15:47;;;;;;;17.50;13.90;;;17.70;63.00;;;;;;4960545;28;20039;-84
2023/11/29 10:18:14;;;;;;;17.98;14.05;;;17.70;63.10;;;;;;4964783;28;20046;-84
2023/11/29 10:20:42;;;;;;;15.35;12.77;;;17.70;63.20;;;;;;4962983;28;20042;-82
2023/11/29 10:23:10;;;;;;;16.52;13.98;;;17.60;63.40;;;;;;4963800;28;20039;-82
2023/11/29 10:25:36;;;;;;;16.13;13.30;;;17.50;63.50;;;;;;4962756;28;20043;-83
2023/11/29 10:28:02;;;;;;;17.05;14.13;;;17.50;63.60;;;;;;4964492;28;20042;-81
2023/11/29 10:30:27;;;;;;;15.80;13.02;;;17.50;63.70;;;;;;4957588;28;20042;-83
2023/11/29 10:32:53;;;;;;;15.63;13.68;;;17.50;63.90;;;;;;4963889;28;20070;-82
2023/11/29 10:35:19;;;;;;;15.00;13.13;;;17.50;64.00;;;;;;4964221;28;20526;-84
2023/11/29 10:37:57;;;;;;;13.40;11.48;;;17.50;64.00;;;;;;4982366;28;20046;-84
2023/11/29 10:40:23;;;;;;;15.13;12.07;;;17.50;63.90;;;;;;4961962;28;20047;-85
2023/11/29 10:42:50;;;;;;;14.52;12.50;;;17.50;64.00;;;;;;4963693;28;20823;-84
2023/11/29 10:45:17;;;;;;;14.13;11.43;;;17.50;64.10;;;;;;4961304;28;20078;-85
2023/11/29 10:48:00;;;;;;;15.52;12.77;;;17.50;64.00;;;;;;4965418;28;20043;-86
2023/11/29 10:50:26;;;;;;;15.68;13.20;;;17.50;64.00;;;;;;4963582;28;20030;-86
2023/11/29 10:52:51;;;;;;;14.15;11.73;;;17.50;63.90;;;;;;4962738;28;20046;-86
2023/11/29 10:55:19;;;;;;;13.48;11.77;;;17.50;63.80;;;;;;4963314;28;20474;-86
2023/11/29 10:57:53;;;;;;;17.55;11.43;;;17.50;64.20;;;;;;4957018;28;20031;-85
2023/11/29 11:00:19;;;;;;;12.80;11.35;;;17.40;64.20;;;;;;4961762;28;20105;-85
2023/11/29 11:02:47;;;;;;;11.57;10.38;;;17.40;64.20;;;;;;4964520;28;20370;-84
2023/11/29 11:05:15;;;;;;;11.77;10.23;;;17.50;64.10;;;;;;4967258;28;20038;-86
2023/11/29 11:07:41;;;;;;;11.98;10.52;;;17.50;64.10;;;;;;4966221;28;20042;-85
2023/11/29 11:10:14;;;;;;;11.40;10.25;;;17.40;64.00;;;;;;4966174;28;20050;-85
2023/11/29 11:12:40;;;;;;;11.30;9.98;;;17.40;64.20;;;;;;4948464;28;20035;-84
2023/11/29 11:15:28;;;;;;;12.57;11.32;;;17.50;63.70;;;;;;4965954;28;20054;-85
2023/11/29 11:18:03;;;;;;;14.23;10.73;;;17.40;63.80;;;;;;4966496;28;20043;-84
2023/11/29 11:20:39;;;;;;;10.27;9.07;;;17.40;63.80;;;;;;4968104;28;20031;-84
2023/11/29 11:23:04;;;;;;;11.10;9.93;;;17.40;64.00;;;;;;4966660;28;20031;-84
2023/11/29 11:25:30;;;;;;;11.82;10.23;;;17.40;64.10;;;;;;4933979;28;20534;-84
2023/11/29 11:27:56;;;;;;;12.05;10.07;;;17.40;64.40;;;;;;4968176;28;20409;-85
2023/11/29 11:30:22;;;;;;;11.35;9.88;;;17.40;63.80;;;;;;4970681;28;20437;-85
2023/11/29 11:32:49;;;;;;;12.43;10.10;;;17.40;64.00;;;;;;4966836;28;20063;-86
2023/11/29 11:35:21;;;;;;;10.57;9.57;;;17.40;63.80;;;;;;4966535;28;20066;-86
2023/11/29 11:37:54;;;;;;;10.55;9.45;;;17.40;63.80;;;;;;4968916;28;20102;-87
2023/11/29 11:40:20;;;;;;;9.55;8.75;;;17.40;63.90;;;;;;4964121;28;20049;-87
2023/11/29 11:42:46;;;;;;;10.18;8.90;;;17.40;63.80;;;;;;4967447;28;20059;-85
2023/11/29 11:45:13;;;;;;;21.15;16.15;;;17.50;63.80;;;;;;4967744;28;20494;-85
2023/11/29 11:47:39;;;;;;;71.35;51.97;;;17.50;63.90;;;;;;4954155;28;20043;-82
2023/11/29 11:50:05;;;;;;;121.47;91.10;;;17.70;63.60;;;;;;4972891;28;22137;-83
2023/11/29 11:52:34;;;;;;;129.85;97.78;;;17.70;64.50;;;;;;4965222;28;20038;-83
2023/11/29 11:55:07;;;;;;;129.80;97.75;;;17.70;65.00;;;;;;4964256;28;20047;-82
2023/11/29 11:57:33;;;;;;;130.00;98.72;;;17.70;65.00;;;;;;4965141;28;20130;-84
2023/11/29 11:59:59;;;;;;;124.65;97.55;;;17.80;65.00;;;;;;4968643;28;20042;-86
2023/11/29 12:02:24;;;;;;;122.32;94.18;;;17.80;64.50;;;;;;4966211;28;20047;-88
2023/11/29 12:04:50;;;;;;;116.28;88.95;;;17.70;64.60;;;;;;4965330;28;20043;-87
2023/11/29 12:07:17;;;;;;;111.63;85.13;;;17.70;64.70;;;;;;4621670;28;10000079;-91
2023/11/29 12:09:44;;;;;;;111.85;86.30;;;17.70;65.10;;;;;;4960181;28;20279;-86
2023/11/29 12:12:10;;;;;;;111.82;86.07;;;17.70;64.90;;;;;;4960435;28;20782;-86
2023/11/29 12:14:39;;;;;;;108.22;80.90;;;17.70;65.00;;;;;;4960219;28;20772;-87
2023/11/29 12:17:04;;;;;;;108.65;83.22;;;17.70;64.80;;;;;;4946831;28;20139;-86
2023/11/29 12:19:30;;;;;;;107.18;81.80;;;17.70;64.60;;;;;;4965870;28;20536;-85
2023/11/29 12:21:57;;;;;;;103.50;77.18;;;17.60;64.80;;;;;;4951348;28;20051;-85
2023/11/29 12:24:22;;;;;;;103.43;77.45;;;17.70;64.80;;;;;;4961209;28;20158;-86
2023/11/29 12:26:48;;;;;;;101.50;77.00;;;17.70;64.70;;;;;;4961891;28;20109;-87
2023/11/29 12:29:13;;;;;;;101.55;76.10;;;17.70;64.50;;;;;;4963275;28;20038;-86
2023/11/29 12:31:39;;;;;;;99.38;73.20;;;17.60;65.30;;;;;;4959557;28;20041;-87